sensor_id;sensor_type;location;lat;lon;timestamp;pressure;altitude;pressure_sealevel;temperature;humidity
69593;BME280;56796;50.122;14.468;2023-04-06T00:16:29;983.84;;;1.81;73.62
69593;BME280;56796;50.122;14.468;2023-04-06T00:35:55;983.75;;;1.64;74.63
69593;BME280;56796;50.122;14.468;2023-04-06T00:55:21;983.51;;;1.33;75.61
69593;BME280;56796;50.122;14.468;2023-04-06T01:14:45;983.6;;;1.23;76.65
69593;BME280;56796;50.122;14.468;2023-04-06T01:34:10;983.58;;;0.96;78.31
69593;BME280;56796;50.122;14.468;2023-04-06T01:53:37;983.47;;;0.73;79.63
69593;BME280;56796;50.122;14.468;2023-04-06T02:13:02;983.44;;;0.62;80.46
69593;BME280;56796;50.122;14.468;2023-04-06T02:32:27;983.4;;;0.48;81.28
69593;BME280;56796;50.122;14.468;2023-04-06T02:51:53;983.42;;;0.21;82.25
69593;BME280;56796;50.122;14.468;2023-04-06T03:11:19;983.48;;;0.06;82.64
69593;BME280;56796;50.122;14.468;2023-04-06T03:30:44;983.51;;;-0.08;83.16
69593;BME280;56796;50.122;14.468;2023-04-06T03:50:09;983.62;;;-0.24;83.62
69593;BME280;56796;50.122;14.468;2023-04-06T04:09:34;983.73;;;-0.43;84.32
69593;BME280;56796;50.122;14.468;2023-04-06T04:29:00;983.84;;;-0.61;84.99
69593;BME280;56796;50.122;14.468;2023-04-06T04:48:26;983.96;;;-0.52;84.75
69593;BME280;56796;50.122;14.468;2023-04-06T05:07:51;983.95;;;-0.18;84.17
69593;BME280;56796;50.122;14.468;2023-04-06T05:27:17;984.01;;;0.32;82.98
69593;BME280;56796;50.122;14.468;2023-04-06T05:46:46;983.97;;;1.3;81.13
69593;BME280;56796;50.122;14.468;2023-04-06T06:06:21;984.03;;;2.09;79.37
69593;BME280;56796;50.122;14.468;2023-04-06T06:25:43;984.12;;;3.07;75.56
69593;BME280;56796;50.122;14.468;2023-04-06T06:45:13;984.12;;;4.14;72.81
69593;BME280;56796;50.122;14.468;2023-04-06T07:04:47;984.02;;;6.01;67.45
69593;BME280;56796;50.122;14.468;2023-04-06T07:24:18;983.93;;;7.46;63.3
69593;BME280;56796;50.122;14.468;2023-04-06T07:43:50;983.9;;;8.56;58.26
69593;BME280;56796;50.122;14.468;2023-04-06T08:03:20;983.92;;;9.66;54.06
69593;BME280;56796;50.122;14.468;2023-04-06T08:22:51;983.86;;;10.75;50.75
69593;BME280;56796;50.122;14.468;2023-04-06T08:42:22;983.7;;;11.8;47.51
69593;BME280;56796;50.122;14.468;2023-04-06T09:01:55;983.73;;;11.49;44.38
69593;BME280;56796;50.122;14.468;2023-04-06T09:21:16;983.65;;;12.37;42.2
69593;BME280;56796;50.122;14.468;2023-04-06T09:40:49;983.49;;;12.3;40.45
69593;BME280;56796;50.122;14.468;2023-04-06T09:59:56;983.54;;;9.05;43.86
69593;BME280;56796;50.122;14.468;2023-04-06T10:19:26;983.3;;;12.49;41.51
69593;BME280;56796;50.122;14.468;2023-04-06T10:38:54;983.32;;;9.77;41.53
69593;BME280;56796;50.122;14.468;2023-04-06T10:58:28;982.93;;;15.07;35.01
69593;BME280;56796;50.122;14.468;2023-04-06T11:17:56;982.75;;;15.25;33.55
69593;BME280;56796;50.122;14.468;2023-04-06T11:37:18;982.72;;;14.51;34.02
69593;BME280;56796;50.122;14.468;2023-04-06T11:56:27;982.75;;;10.9;36.87
69593;BME280;56796;50.122;14.468;2023-04-06T12:15:52;982.61;;;11.59;37.34
69593;BME280;56796;50.122;14.468;2023-04-06T12:35:22;982.35;;;13.69;34.39
69593;BME280;56796;50.122;14.468;2023-04-06T12:54:49;982.24;;;13.49;34.29
69593;BME280;56796;50.122;14.468;2023-04-06T13:14:04;982.14;;;10.53;36.54
69593;BME280;56796;50.122;14.468;2023-04-06T13:33:22;982.06;;;11.27;37.29
69593;BME280;56796;50.122;14.468;2023-04-06T13:52:48;981.82;;;12.37;37.07
69593;BME280;56796;50.122;14.468;2023-04-06T14:12:21;981.64;;;12.73;35.18
69593;BME280;56796;50.122;14.468;2023-04-06T14:31:50;981.69;;;13.42;33.62
69593;BME280;56796;50.122;14.468;2023-04-06T14:51:15;981.6;;;12.02;35.57
69593;BME280;56796;50.122;14.468;2023-04-06T15:10:37;981.5;;;12.09;36.56
69593;BME280;56796;50.122;14.468;2023-04-06T15:30:04;981.5;;;11.32;37.95
69593;BME280;56796;50.122;14.468;2023-04-06T15:49:22;981.47;;;10.74;39.06
69593;BME280;56796;50.122;14.468;2023-04-06T16:08:49;981.34;;;10.9;38.42
69593;BME280;56796;50.122;14.468;2023-04-06T16:28:06;981.37;;;10.28;38.64
69593;BME280;56796;50.122;14.468;2023-04-06T16:47:35;981.4;;;9.18;40.41
69593;BME280;56796;50.122;14.468;2023-04-06T17:06:45;981.38;;;8.3;42.64
69593;BME280;56796;50.122;14.468;2023-04-06T17:26:09;981.41;;;7.69;43.48
69593;BME280;56796;50.122;14.468;2023-04-06T17:45:33;981.52;;;7.17;44.26
69593;BME280;56796;50.122;14.468;2023-04-06T18:04:56;981.63;;;6.74;45
69593;BME280;56796;50.122;14.468;2023-04-06T18:24:21;981.73;;;6.45;45.72
69593;BME280;56796;50.122;14.468;2023-04-06T18:43:45;981.77;;;6.22;46.22
69593;BME280;56796;50.122;14.468;2023-04-06T19:03:10;981.86;;;5.9;47.2
69593;BME280;56796;50.122;14.468;2023-04-06T19:22:35;981.88;;;5.72;48.74
69593;BME280;56796;50.122;14.468;2023-04-06T19:42:02;981.88;;;5.86;48.79
69593;BME280;56796;50.122;14.468;2023-04-06T20:01:27;981.91;;;5.82;49.57
69593;BME280;56796;50.122;14.468;2023-04-06T20:20:53;981.95;;;5.65;50.21
69593;BME280;56796;50.122;14.468;2023-04-06T20:40:19;981.87;;;5.56;50.63
69593;BME280;56796;50.122;14.468;2023-04-06T20:59:45;981.8;;;5.4;51.18
69593;BME280;56796;50.122;14.468;2023-04-06T21:19:11;981.76;;;5.2;51.93
69593;BME280;56796;50.122;14.468;2023-04-06T21:38:37;981.8;;;5.06;52.35
69593;BME280;56796;50.122;14.468;2023-04-06T21:58:02;981.72;;;4.77;52.9
69593;BME280;56796;50.122;14.468;2023-04-06T22:17:27;981.68;;;4.71;53.08
69593;BME280;56796;50.122;14.468;2023-04-06T22:36:52;981.6;;;4.42;54.72
69593;BME280;56796;50.122;14.468;2023-04-06T22:56:18;981.62;;;4.16;56.32
69593;BME280;56796;50.122;14.468;2023-04-06T23:15:42;981.53;;;3.9;58.06
69593;BME280;56796;50.122;14.468;2023-04-06T23:35:08;981.43;;;3.95;58.57
69593;BME280;56796;50.122;14.468;2023-04-06T23:54:35;981.26;;;3.61;60.75
